MSC Carolina — 3ECV5 — position and weather

sailwx.info

Track history (hours):
 
Tides and Currents Weather Stations Pressure Air Temp Water Temp Dewpoint Dewpoint Depression Visibility Wind Speed Wind Dir Waves Ship Positions

MSC Carolina

Last reported at 2014-Jul-22 20:21 UTC. Time now 2014-Jul-22 21:35 UTC.
Position N 31°09' E 029°48'.

Length 275 m; draft 11.6 m.

Type: Ship (hazmat cat B). MMSI: 371475000.

Date/timePositionNaut miles runAvg speedWind from/ knotsBaromVisibWave heightAir tempDewpointWater temp
2014-Jul-22 20:21N 31°09' E 029°48'0 0.0
2014-Jul-22 18:24N 31°09' E 029°48'0 0.0
2014-Jul-22 17:33N 31°09' E 029°48'0 0.0
2014-Jul-22 16:30N 31°09' E 029°48'0 0.0
2014-Jul-22 13:30N 31°09' E 029°48'  
2014-Jul-20 05:32N 31°47' E 030°09'19112.7
2014-Jul-19 14:33N 34°08' E 032°42'1212.5
2014-Jul-19 13:33N 34°18' E 032°51'1212.4
2014-Jul-19 12:34N 34°27' E 033°01'1212.1
2014-Jul-19 11:34N 34°39' E 033°03'2 1.7
2014-Jul-19 10:31N 34°39' E 033°01'0 0.0
2014-Jul-19 09:31N 34°39' E 033°01'0 0.0
2014-Jul-19 08:31N 34°39' E 033°01'0 0.0
2014-Jul-19 07:31N 34°39' E 033°01'0 0.0
2014-Jul-19 06:31N 34°39' E 033°01'0 0.0
2014-Jul-19 05:31N 34°39' E 033°01'0 0.0
2014-Jul-19 04:31N 34°39' E 033°01'0 0.0
2014-Jul-19 03:31N 34°39' E 033°01'0 0.0
2014-Jul-19 02:31N 34°39' E 033°01'0 0.0
2014-Jul-19 01:31N 34°39' E 033°01'0 0.0
2014-Jul-19 00:31N 34°39' E 033°01'0 0.0
2014-Jul-18 23:31N 34°39' E 033°01'0 0.0
2014-Jul-18 22:31N 34°39' E 033°01'0 0.0
2014-Jul-18 21:31N 34°39' E 033°01'0 0.0
2014-Jul-18 20:31N 34°39' E 033°01'0 0.0
2014-Jul-18 19:31N 34°39' E 033°01'0 0.0
2014-Jul-18 18:31N 34°39' E 033°01'0 0.0
2014-Jul-18 17:31N 34°39' E 033°01'0 0.0
2014-Jul-18 16:31N 34°39' E 033°01'0 0.0
2014-Jul-18 15:31N 34°39' E 033°01'0 0.0
2014-Jul-18 14:28N 34°39' E 033°01'0 0.0
2014-Jul-18 13:31N 34°39' E 033°01'0 0.0
2014-Jul-18 12:31N 34°39' E 033°01'0 0.0
2014-Jul-18 11:31N 34°39' E 033°01'0 0.0
2014-Jul-18 10:31N 34°39' E 033°01'0 0.0
2014-Jul-18 09:31N 34°39' E 033°01'0 0.0
2014-Jul-18 08:34N 34°39' E 033°01'0 0.0
2014-Jul-18 07:33N 34°39' E 033°01'0 0.0
2014-Jul-18 06:33N 34°39' E 033°01'0 0.0
2014-Jul-18 05:33N 34°39' E 033°01'0 0.0
2014-Jul-18 04:33N 34°39' E 033°01'1 1.0
2014-Jul-18 03:34N 34°39' E 033°02'4 3.8
2014-Jul-18 02:34N 34°38' E 033°06'1111.5
2014-Jul-18 01:34N 34°34' E 033°20'1313.2
2014-Jul-18 00:33N 34°30' E 033°35'1312.6
2014-Jul-17 23:33N 34°26' E 033°49'1412.2
2014-Jul-17 22:23N 34°20' E 034°05'1312.1
2014-Jul-17 21:19N 34°15' E 034°19'912.0
2014-Jul-17 20:34N 34°11' E 034°29'1212.4
2014-Jul-17 19:33N 34°07' E 034°43'1312.8
2014-Jul-17 18:34N 34°02' E 034°58'24 1.1
2014-Jul-16 21:11N 33°59' E 034°29'812.8
2014-Jul-16 20:33N 34°00' E 034°19'1312.9
2014-Jul-16 19:33N 34°01' E 034°04'1312.8
2014-Jul-16 18:33N 34°02' E 033°48'1412.9
2014-Jul-16 17:30N 34°03' E 033°32'1213.0
2014-Jul-16 16:33N 34°04' E 033°17'1414.1
2014-Jul-16 15:34N 34°05' E 033°00'1414.4
2014-Jul-16 14:34N 34°07' E 032°43'1514.7
2014-Jul-16 13:34N 34°08' E 032°25'1514.6
2014-Jul-16 12:33N 34°09' E 032°08'1414.3
2014-Jul-16 11:34N 34°10' E 031°51'1414.2
2014-Jul-16 10:34N 34°12' E 031°33'1414.2
2014-Jul-16 09:34N 34°13' E 031°16'1414.0
2014-Jul-16 08:33N 34°14' E 030°59'17214.3
2014-Jul-15 20:31N 34°28' E 027°32'  
2014-Jul-13 02:22N 37°57' E 009°16'1012.5
2014-Jul-13 01:32N 37°58' E 009°03'1512.8
2014-Jul-13 00:21N 38°00' E 008°44'1313.3
2014-Jul-12 23:22N 38°02' E 008°28'  
Track history (hours):
 
Tides and Currents Weather Stations Pressure Air Temp Water Temp Dewpoint Dewpoint Depression Visibility Wind Speed Wind Dir Waves Ship Positions

MSC Carolina

Last reported at 2014-Jul-22 20:21 UTC. Time now 2014-Jul-22 21:35 UTC.
Position N 31°09' E 029°48'.

Length 275 m; draft 11.6 m.

Type: Ship (hazmat cat B). MMSI: 371475000.

Date/timePositionNaut miles runAvg speedWind from/ knotsBaromVisibWave heightAir tempDewpointWater temp
2014-Jul-22 20:21N 31°09' E 029°48'0 0.0
2014-Jul-22 18:24N 31°09' E 029°48'0 0.0
2014-Jul-22 17:33N 31°09' E 029°48'0 0.0
2014-Jul-22 16:30N 31°09' E 029°48'0 0.0
2014-Jul-22 13:30N 31°09' E 029°48'  
2014-Jul-20 05:32N 31°47' E 030°09'19112.7
2014-Jul-19 14:33N 34°08' E 032°42'1212.5
2014-Jul-19 13:33N 34°18' E 032°51'1212.4
2014-Jul-19 12:34N 34°27' E 033°01'1212.1
2014-Jul-19 11:34N 34°39' E 033°03'2 1.7
2014-Jul-19 10:31N 34°39' E 033°01'0 0.0
2014-Jul-19 09:31N 34°39' E 033°01'0 0.0
2014-Jul-19 08:31N 34°39' E 033°01'0 0.0
2014-Jul-19 07:31N 34°39' E 033°01'0 0.0
2014-Jul-19 06:31N 34°39' E 033°01'0 0.0
2014-Jul-19 05:31N 34°39' E 033°01'0 0.0
2014-Jul-19 04:31N 34°39' E 033°01'0 0.0
2014-Jul-19 03:31N 34°39' E 033°01'0 0.0
2014-Jul-19 02:31N 34°39' E 033°01'0 0.0
2014-Jul-19 01:31N 34°39' E 033°01'0 0.0
2014-Jul-19 00:31N 34°39' E 033°01'0 0.0
2014-Jul-18 23:31N 34°39' E 033°01'0 0.0
2014-Jul-18 22:31N 34°39' E 033°01'0 0.0
2014-Jul-18 21:31N 34°39' E 033°01'0 0.0
2014-Jul-18 20:31N 34°39' E 033°01'0 0.0
2014-Jul-18 19:31N 34°39' E 033°01'0 0.0
2014-Jul-18 18:31N 34°39' E 033°01'0 0.0
2014-Jul-18 17:31N 34°39' E 033°01'0 0.0
2014-Jul-18 16:31N 34°39' E 033°01'0 0.0
2014-Jul-18 15:31N 34°39' E 033°01'0 0.0
2014-Jul-18 14:28N 34°39' E 033°01'0 0.0
2014-Jul-18 13:31N 34°39' E 033°01'0 0.0
2014-Jul-18 12:31N 34°39' E 033°01'0 0.0
2014-Jul-18 11:31N 34°39' E 033°01'0 0.0
2014-Jul-18 10:31N 34°39' E 033°01'0 0.0
2014-Jul-18 09:31N 34°39' E 033°01'0 0.0
2014-Jul-18 08:34N 34°39' E 033°01'0 0.0
2014-Jul-18 07:33N 34°39' E 033°01'0 0.0
2014-Jul-18 06:33N 34°39' E 033°01'0 0.0
2014-Jul-18 05:33N 34°39' E 033°01'0 0.0
2014-Jul-18 04:33N 34°39' E 033°01'1 1.0
2014-Jul-18 03:34N 34°39' E 033°02'4 3.8
2014-Jul-18 02:34N 34°38' E 033°06'1111.5
2014-Jul-18 01:34N 34°34' E 033°20'1313.2
2014-Jul-18 00:33N 34°30' E 033°35'1312.6
2014-Jul-17 23:33N 34°26' E 033°49'1412.2
2014-Jul-17 22:23N 34°20' E 034°05'1312.1
2014-Jul-17 21:19N 34°15' E 034°19'912.0
2014-Jul-17 20:34N 34°11' E 034°29'1212.4
2014-Jul-17 19:33N 34°07' E 034°43'1312.8
2014-Jul-17 18:34N 34°02' E 034°58'24 1.1
2014-Jul-16 21:11N 33°59' E 034°29'812.8
2014-Jul-16 20:33N 34°00' E 034°19'1312.9
2014-Jul-16 19:33N 34°01' E 034°04'1312.8
2014-Jul-16 18:33N 34°02' E 033°48'1412.9
2014-Jul-16 17:30N 34°03' E 033°32'1213.0
2014-Jul-16 16:33N 34°04' E 033°17'1414.1
2014-Jul-16 15:34N 34°05' E 033°00'1414.4
2014-Jul-16 14:34N 34°07' E 032°43'1514.7
2014-Jul-16 13:34N 34°08' E 032°25'1514.6
2014-Jul-16 12:33N 34°09' E 032°08'1414.3
2014-Jul-16 11:34N 34°10' E 031°51'1414.2
2014-Jul-16 10:34N 34°12' E 031°33'1414.2
2014-Jul-16 09:34N 34°13' E 031°16'1414.0
2014-Jul-16 08:33N 34°14' E 030°59'17214.3
2014-Jul-15 20:31N 34°28' E 027°32'  
2014-Jul-13 02:22N 37°57' E 009°16'1012.5
2014-Jul-13 01:32N 37°58' E 009°03'1512.8
2014-Jul-13 00:21N 38°00' E 008°44'1313.3
2014-Jul-12 23:22N 38°02' E 008°28'  

Dump ship's entire track history